createdAt,value
2019-05-15T00:00:03.343Z,99.90
2019-05-15T00:02:48.071Z,99.90
2019-05-15T00:05:29.196Z,99.90
2019-05-15T00:08:09.884Z,99.90
2019-05-15T00:10:50.033Z,99.90
2019-05-15T00:13:30.583Z,99.90
2019-05-15T00:16:10.532Z,99.90
2019-05-15T00:18:50.678Z,99.90
2019-05-15T00:21:31.149Z,99.90
2019-05-15T00:24:13.138Z,99.90
2019-05-15T00:26:53.573Z,99.90
2019-05-15T00:29:33.674Z,99.90
2019-05-15T00:32:14.034Z,99.90
2019-05-15T00:34:54.193Z,99.90
2019-05-15T00:37:35.424Z,99.90
2019-05-15T00:43:38.659Z,99.90
2019-05-15T00:46:05.869Z,99.90
2019-05-15T00:48:53.041Z,99.90
2019-05-15T00:51:33.714Z,99.90
2019-05-15T00:54:14.714Z,99.90
2019-05-15T00:56:54.392Z,99.90
2019-05-15T00:59:34.897Z,99.90
2019-05-15T01:02:17.851Z,99.90
2019-05-15T01:04:58.581Z,99.90
2019-05-15T01:07:40.463Z,99.90
2019-05-15T01:10:21.840Z,99.90
2019-05-15T01:13:02.267Z,99.90
2019-05-15T01:15:42.178Z,99.90
2019-05-15T03:24:05.106Z,99.90
2019-05-15T03:26:45.019Z,99.90
2019-05-15T03:29:25.001Z,99.90
2019-05-15T03:32:17.967Z,99.90
2019-05-15T03:34:55.754Z,99.90
2019-05-15T03:37:33.146Z,99.90
2019-05-15T03:40:12.339Z,99.90
2019-05-15T03:42:53.903Z,99.90
2019-05-15T03:45:34.229Z,99.90
2019-05-15T03:48:14.263Z,99.90
2019-05-15T03:50:54.755Z,99.90
2019-05-15T03:53:22.645Z,99.90
2019-05-15T03:56:09.844Z,99.90
2019-05-15T03:58:59.726Z,99.90
2019-05-15T04:01:43.673Z,99.90
2019-05-15T04:04:22.027Z,99.90
2019-05-15T04:07:02.298Z,99.90
2019-05-15T04:09:42.838Z,99.90
2019-05-15T04:12:23.434Z,99.90
2019-05-15T04:15:03.087Z,99.90
2019-05-15T04:17:43.506Z,99.90
2019-05-15T04:20:23.706Z,99.90
2019-05-15T04:23:04.027Z,99.90
2019-05-15T04:25:43.782Z,99.90
2019-05-15T04:28:29.229Z,99.90
2019-05-15T04:31:09.552Z,99.90
2019-05-15T04:33:51.695Z,99.90
2019-05-15T04:36:32.000Z,99.90
2019-05-15T04:39:12.273Z,99.60
2019-05-15T04:41:52.236Z,98.20
2019-05-15T04:44:20.315Z,96.80
2019-05-15T04:47:09.646Z,95.50
2019-05-15T04:49:59.008Z,94.70
2019-05-15T04:52:43.429Z,93.10
2019-05-15T04:55:22.259Z,93.10
2019-05-15T04:58:02.307Z,93.00
2019-05-15T05:00:42.534Z,92.30
2019-05-15T05:03:22.502Z,92.00
2019-05-15T05:06:02.540Z,92.90
2019-05-15T05:08:42.965Z,95.10
2019-05-15T05:11:24.059Z,98.40
2019-05-15T05:14:04.899Z,99.90
2019-05-15T05:16:45.201Z,99.90
2019-05-15T05:19:25.204Z,99.90
2019-05-15T05:21:52.308Z,99.90
2019-05-15T05:24:20.572Z,99.90
2019-05-15T05:27:22.734Z,99.90
2019-05-15T05:30:03.033Z,99.90
2019-05-15T05:32:42.733Z,99.90
2019-05-15T05:35:23.472Z,99.90
2019-05-15T05:38:03.174Z,99.90
2019-05-15T05:40:43.325Z,99.90
2019-05-15T05:43:23.291Z,99.90
2019-05-15T05:46:03.098Z,99.90
2019-05-15T05:48:43.860Z,99.90
2019-05-15T05:51:23.673Z,99.90
2019-05-15T05:54:04.934Z,99.90
2019-05-15T05:56:44.556Z,99.90
2019-05-15T05:59:24.990Z,99.90
2019-05-15T06:02:07.971Z,99.90
2019-05-15T06:04:47.972Z,99.90
2019-05-15T06:07:28.054Z,99.90
2019-05-15T06:10:08.823Z,99.90
2019-05-15T06:12:49.649Z,99.90
2019-05-15T06:15:29.629Z,99.90
2019-05-15T06:18:09.458Z,99.90
2019-05-15T06:20:50.183Z,99.90
2019-05-15T06:23:35.225Z,99.90
2019-05-15T06:26:13.278Z,99.90
2019-05-15T06:28:53.682Z,99.90
2019-05-15T06:31:33.309Z,99.90
2019-05-15T06:34:13.872Z,99.90
2019-05-15T06:36:53.848Z,99.90
2019-05-15T06:39:33.973Z,99.90
2019-05-15T06:42:14.553Z,99.90
2019-05-15T06:44:54.340Z,99.90
2019-05-15T06:47:34.567Z,99.90
2019-05-15T06:50:15.012Z,99.90
2019-05-15T06:52:55.472Z,99.90
2019-05-15T06:55:35.846Z,99.90
2019-05-15T06:58:15.325Z,99.90
2019-05-15T07:00:55.686Z,99.90
2019-05-15T07:03:35.777Z,99.90
2019-05-15T07:06:17.969Z,99.90
2019-05-15T07:08:58.638Z,99.90
2019-05-15T07:11:39.353Z,99.90
2019-05-15T07:14:19.685Z,99.90
2019-05-15T07:16:59.573Z,99.90
2019-05-15T07:19:39.544Z,99.90
2019-05-15T07:22:19.968Z,99.90
2019-05-15T07:24:59.549Z,99.90
2019-05-15T07:27:39.639Z,99.90
2019-05-15T07:30:20.469Z,99.90
2019-05-15T07:33:01.310Z,99.90
2019-05-15T07:35:41.277Z,99.90
2019-05-15T07:38:20.954Z,99.90
2019-05-15T07:41:04.299Z,99.90
2019-05-15T07:43:43.013Z,99.90
2019-05-15T07:46:24.241Z,99.90
2019-05-15T07:49:04.667Z,99.90
2019-05-15T07:51:44.414Z,99.90
2019-05-15T07:54:24.802Z,99.90
2019-05-15T07:57:04.849Z,99.90
2019-05-15T07:59:48.058Z,99.90
2019-05-15T08:02:28.502Z,99.90
2019-05-15T08:05:08.586Z,99.90
2019-05-15T08:07:49.303Z,99.90
2019-05-15T08:10:30.792Z,99.90
2019-05-15T08:13:10.673Z,99.90
2019-05-15T08:15:50.756Z,99.90
2019-05-15T08:18:30.862Z,99.90
2019-05-15T08:21:10.889Z,99.90
2019-05-15T08:23:52.795Z,99.90
2019-05-15T08:26:32.489Z,99.90
2019-05-15T08:29:13.666Z,99.90
2019-05-15T08:31:53.340Z,99.90
2019-05-15T08:34:33.665Z,99.90
2019-05-15T08:37:13.635Z,99.90
2019-05-15T08:39:53.290Z,99.90
2019-05-15T08:42:33.474Z,99.90
2019-05-15T08:45:13.615Z,99.90
2019-05-15T08:47:41.088Z,99.90
2019-05-15T08:50:28.773Z,99.90
2019-05-15T08:53:15.642Z,99.90
2019-05-15T08:55:55.985Z,99.90
2019-05-15T08:58:38.204Z,99.90
2019-05-15T09:01:18.422Z,99.90
2019-05-15T09:03:58.598Z,99.90
2019-05-15T09:06:41.300Z,99.90
2019-05-15T09:09:20.377Z,99.90
2019-05-15T09:12:00.183Z,99.90
2019-05-15T09:14:40.394Z,99.90
2019-05-15T09:17:20.441Z,99.90
2019-05-15T09:20:00.553Z,99.90
2019-05-15T09:22:40.274Z,99.90
2019-05-15T09:25:20.825Z,99.90
2019-05-15T09:28:00.926Z,99.90
2019-05-15T09:30:41.076Z,99.90
2019-05-15T09:33:21.571Z,99.90
2019-05-15T09:36:01.329Z,99.90
2019-05-15T09:38:41.136Z,99.90
2019-05-15T09:41:21.093Z,99.90
2019-05-15T09:44:00.974Z,99.90
2019-05-15T09:46:41.218Z,99.90
2019-05-15T09:49:21.150Z,99.90
2019-05-15T09:52:01.261Z,99.90
2019-05-15T09:54:41.386Z,99.90
2019-05-15T09:57:21.118Z,99.90
2019-05-15T10:00:01.138Z,99.90
2019-05-15T10:02:41.790Z,99.90
2019-05-15T10:05:21.434Z,99.90
2019-05-15T10:08:01.456Z,99.90
2019-05-15T10:10:41.804Z,99.90
2019-05-15T10:13:21.933Z,99.90
2019-05-15T10:16:02.153Z,99.90
2019-05-15T10:18:30.485Z,99.90
2019-05-15T10:21:18.582Z,99.90
2019-05-15T10:24:10.000Z,99.90
2019-05-15T10:26:50.078Z,99.90
2019-05-15T10:29:30.089Z,99.90
2019-05-15T10:32:10.573Z,99.90
2019-05-15T10:34:51.218Z,99.80
2019-05-15T10:37:31.094Z,99.30
2019-05-15T10:40:11.024Z,99.10
2019-05-15T10:42:51.478Z,99.40
2019-05-15T10:45:30.995Z,98.30
2019-05-15T10:48:11.549Z,97.40
2019-05-15T10:50:50.990Z,97.90
2019-05-15T10:53:31.845Z,99.70
2019-05-15T10:56:11.851Z,99.90
2019-05-15T10:58:51.511Z,99.80
2019-05-15T11:01:31.514Z,98.90
2019-05-15T11:04:11.871Z,97.90
2019-05-15T11:06:52.801Z,98.40
2019-05-15T11:09:33.162Z,98.80
2019-05-15T11:12:12.581Z,97.10
2019-05-15T11:14:52.793Z,97.20
2019-05-15T11:17:32.584Z,98.20
2019-05-15T11:20:13.320Z,98.10
2019-05-15T11:22:53.955Z,97.50
2019-05-15T11:25:33.838Z,99.20
2019-05-15T11:28:01.601Z,98.00
2019-05-15T11:30:49.383Z,97.50
2019-05-15T11:33:38.441Z,98.90
2019-05-15T11:36:18.664Z,96.50
2019-05-15T11:38:58.630Z,95.00
2019-05-15T11:41:39.011Z,94.30
2019-05-15T11:44:19.901Z,94.40
2019-05-15T11:46:59.550Z,94.40
2019-05-15T11:49:40.154Z,95.00
2019-05-15T11:52:19.968Z,93.70
2019-05-15T11:55:00.098Z,93.80
2019-05-15T11:57:46.857Z,93.70
2019-05-15T12:00:27.175Z,92.40
2019-05-15T12:03:04.310Z,92.60
2019-05-15T12:05:44.638Z,92.80
2019-05-15T12:08:24.463Z,92.20
2019-05-15T12:11:04.676Z,91.30
2019-05-15T12:13:45.063Z,91.00
2019-05-15T12:16:28.792Z,88.20
2019-05-15T12:19:09.619Z,87.70
2019-05-15T12:21:51.125Z,87.70
2019-05-15T12:24:35.158Z,90.30
2019-05-15T12:29:55.111Z,90.20
2019-05-15T12:32:36.732Z,88.80
2019-05-15T12:35:20.483Z,90.40
2019-05-15T12:37:59.464Z,88.40
2019-05-15T12:59:45.965Z,85.00
2019-05-15T13:02:27.912Z,84.00
2019-05-15T13:04:55.511Z,85.80
2019-05-15T13:07:43.024Z,86.00
2019-05-15T13:10:23.610Z,85.70
2019-05-15T13:13:05.726Z,85.70
2019-05-15T13:15:48.252Z,87.10
2019-05-15T13:18:28.742Z,85.40
2019-05-15T13:21:08.865Z,87.80
2019-05-15T13:23:49.622Z,84.20
2019-05-15T13:26:23.864Z,86.80
2019-05-15T13:29:12.350Z,84.20
2019-05-15T13:31:52.481Z,82.30
2019-05-15T13:34:32.675Z,84.60
2019-05-15T13:37:25.199Z,84.40
2019-05-15T13:39:58.556Z,85.70
2019-05-15T13:42:40.163Z,84.30
2019-05-15T13:45:19.993Z,82.20
2019-05-15T13:48:00.589Z,82.50
2019-05-15T13:50:40.807Z,82.30
2019-05-15T13:53:21.757Z,85.80
2019-05-15T13:56:01.458Z,85.30
2019-05-15T13:58:41.625Z,85.10
2019-05-15T14:01:21.965Z,83.90
2019-05-15T14:04:02.200Z,88.40
2019-05-15T14:06:42.079Z,84.60
2019-05-15T14:09:23.343Z,84.20
2019-05-15T14:12:03.785Z,83.60
2019-05-15T14:14:44.706Z,83.80
2019-05-15T14:17:14.265Z,83.90
2019-05-15T14:19:42.057Z,85.50
2019-05-15T14:22:22.124Z,84.50
2019-05-15T14:25:02.848Z,82.90
2019-05-15T14:27:43.518Z,84.70
2019-05-15T14:30:23.813Z,84.30
2019-05-15T14:33:04.249Z,84.00
2019-05-15T14:35:44.217Z,83.40
2019-05-15T14:38:24.822Z,83.50
2019-05-15T14:41:04.954Z,84.70
2019-05-15T14:43:48.328Z,86.30
2019-05-15T14:46:27.811Z,85.70
2019-05-15T14:48:55.266Z,82.90
2019-05-15T14:51:24.271Z,84.60
2019-05-15T14:54:04.193Z,84.50
2019-05-15T14:56:44.683Z,85.60
2019-05-15T14:59:25.869Z,83.30
2019-05-15T15:02:05.973Z,82.40
2019-05-15T15:04:48.392Z,81.90
2019-05-15T15:07:28.379Z,82.70
2019-05-15T15:10:09.541Z,82.50
2019-05-15T15:12:50.202Z,82.00
2019-05-15T15:15:30.811Z,81.50
2019-05-15T15:18:11.309Z,81.40
2019-05-15T15:20:53.845Z,81.10
2019-05-15T15:23:33.848Z,82.10
2019-05-15T15:26:14.136Z,81.60
2019-05-15T15:28:55.002Z,82.10
2019-05-15T15:31:39.008Z,83.10
2019-05-15T15:34:20.921Z,82.90
2019-05-15T15:37:03.022Z,82.40
2019-05-15T15:39:43.301Z,82.80
2019-05-15T15:42:24.381Z,80.30
2019-05-15T15:45:04.580Z,81.10
2019-05-15T15:47:45.119Z,81.90
2019-05-15T15:50:25.394Z,82.10
2019-05-15T15:53:05.601Z,82.10
2019-05-15T15:55:45.810Z,78.60
2019-05-15T15:58:25.670Z,78.60
2019-05-15T16:01:05.858Z,78.00
2019-05-15T16:03:33.997Z,78.30
2019-05-15T16:06:20.745Z,80.40
2019-05-15T16:09:00.530Z,79.20
2019-05-15T16:11:40.980Z,77.50
2019-05-15T16:14:20.817Z,77.60
2019-05-15T16:17:01.048Z,77.90
2019-05-15T16:19:41.246Z,79.00
2019-05-15T16:22:21.465Z,79.40
2019-05-15T16:25:02.292Z,80.20
2019-05-15T16:27:42.669Z,81.40
2019-05-15T16:30:22.597Z,80.90
2019-05-15T16:33:02.990Z,82.10
2019-05-15T16:35:43.025Z,82.60
2019-05-15T16:38:23.269Z,83.10
2019-05-15T16:41:03.349Z,83.00
2019-05-15T16:43:43.722Z,83.40
2019-05-15T16:46:24.491Z,83.10
2019-05-15T16:49:05.260Z,83.40
2019-05-15T16:51:45.495Z,83.30
2019-05-15T16:54:25.339Z,84.20
2019-05-15T16:57:05.271Z,85.10
2019-05-15T16:59:45.289Z,85.70
2019-05-15T17:02:25.018Z,85.20
2019-05-15T17:05:05.608Z,85.50
2019-05-15T17:07:45.881Z,86.50
2019-05-15T17:10:28.021Z,87.50
2019-05-15T17:13:08.874Z,87.50
2019-05-15T17:15:49.611Z,87.70
2019-05-15T17:18:18.119Z,87.70
2019-05-15T17:21:12.340Z,87.90
2019-05-15T17:23:52.532Z,89.10
2019-05-15T17:26:32.981Z,89.50
2019-05-15T17:29:13.594Z,90.10
2019-05-15T17:31:42.909Z,89.30
2019-05-15T17:34:29.725Z,90.30
2019-05-15T17:36:58.312Z,90.70
2019-05-15T17:39:52.274Z,91.00
2019-05-15T17:42:32.226Z,91.30
2019-05-15T17:45:12.290Z,91.40
2019-05-15T17:47:52.546Z,91.30
2019-05-15T17:50:44.896Z,91.90
2019-05-15T17:53:15.314Z,92.30
2019-05-15T17:55:44.234Z,92.60
2019-05-15T17:58:32.422Z,92.40
2019-05-15T18:01:12.945Z,91.80
2019-05-15T18:03:53.273Z,92.40
2019-05-15T18:06:33.881Z,92.50
2019-05-15T18:09:14.344Z,92.70
2019-05-15T18:11:54.291Z,92.80
2019-05-15T18:14:34.585Z,92.60
2019-05-15T18:17:01.975Z,92.90
2019-05-15T18:19:29.396Z,92.80
2019-05-15T18:21:59.269Z,93.10
2019-05-15T18:24:53.261Z,93.50
2019-05-15T18:27:33.490Z,92.80
2019-05-15T18:30:14.012Z,93.20
2019-05-15T18:32:42.802Z,93.30
2019-05-15T18:35:10.766Z,93.60
2019-05-15T18:37:50.980Z,93.50
2019-05-15T18:40:38.520Z,93.50
2019-05-15T18:43:35.069Z,93.80
2019-05-15T18:46:18.342Z,94.30
2019-05-15T18:48:58.579Z,94.20
2019-05-15T18:51:38.573Z,94.80
2019-05-15T18:54:08.013Z,95.00
2019-05-15T18:57:16.029Z,94.90
2019-05-15T18:59:44.101Z,96.20
2019-05-15T19:02:31.201Z,95.90
2019-05-15T19:04:58.842Z,96.40
2019-05-15T19:07:45.652Z,96.80
2019-05-15T19:10:28.201Z,96.50
2019-05-15T19:13:09.249Z,96.50
2019-05-15T19:15:50.463Z,98.90
2019-05-15T19:18:30.165Z,98.80
2019-05-15T19:20:58.750Z,99.80
2019-05-15T19:24:07.784Z,99.90
2019-05-15T19:26:35.413Z,99.90
2019-05-15T19:29:17.952Z,99.90
2019-05-15T19:31:58.282Z,99.90
2019-05-15T19:34:38.886Z,99.90
2019-05-15T19:37:20.100Z,99.90
2019-05-15T19:39:59.738Z,99.90
2019-05-15T19:42:40.316Z,99.90
2019-05-15T19:45:20.413Z,99.90
2019-05-15T19:48:00.663Z,99.90
2019-05-15T19:50:40.866Z,99.90
2019-05-15T19:53:20.834Z,99.90
2019-05-15T19:56:01.026Z,99.90
2019-05-15T19:58:41.042Z,99.90
2019-05-15T20:01:22.107Z,99.90
2019-05-15T20:04:02.178Z,99.90
2019-05-15T20:06:42.832Z,99.90
2019-05-15T20:09:23.030Z,99.90
2019-05-15T20:12:02.821Z,99.90
2019-05-15T20:14:43.042Z,99.90
2019-05-15T20:17:23.149Z,99.90
2019-05-15T20:20:03.516Z,99.90
2019-05-15T20:22:43.517Z,99.90
2019-05-15T20:25:23.833Z,99.90
2019-05-15T20:28:04.194Z,99.90
2019-05-15T20:30:32.141Z,99.90
2019-05-15T20:33:19.138Z,99.90
2019-05-15T20:35:59.966Z,99.90
2019-05-15T20:38:39.871Z,99.90
2019-05-15T20:41:20.082Z,99.90
2019-05-15T20:44:00.107Z,99.90
2019-05-15T20:52:39.628Z,99.90
2019-05-15T20:55:20.238Z,99.90
2019-05-15T20:58:01.145Z,99.90
2019-05-15T21:00:29.732Z,99.90
2019-05-15T21:03:17.983Z,99.90
2019-05-15T21:06:09.183Z,99.90
2019-05-15T21:08:48.906Z,99.90
2019-05-15T21:11:29.454Z,99.90
2019-05-15T21:14:09.009Z,99.90
2019-05-15T21:16:36.213Z,99.90
2019-05-15T21:19:23.095Z,99.90
2019-05-15T21:22:04.157Z,99.90
2019-05-15T21:24:31.697Z,99.90
2019-05-15T21:27:23.823Z,99.90
2019-05-15T21:30:20.435Z,99.90
2019-05-15T21:33:00.799Z,99.90
2019-05-15T21:35:41.444Z,99.90
2019-05-15T21:38:21.506Z,99.90
2019-05-15T21:41:01.358Z,99.90
2019-05-15T21:43:41.881Z,99.90
2019-05-15T21:46:22.069Z,99.90
2019-05-15T21:49:03.041Z,99.90
2019-05-15T21:51:43.266Z,99.90
2019-05-15T21:54:23.706Z,99.90
2019-05-15T21:57:18.609Z,99.90
2019-05-15T21:59:47.141Z,99.90
2019-05-15T22:02:29.215Z,99.90
2019-05-15T22:05:10.074Z,99.90
2019-05-15T22:07:51.151Z,99.90
2019-05-15T22:10:31.005Z,99.90
2019-05-15T22:13:11.321Z,99.90
2019-05-15T22:15:51.225Z,99.90
2019-05-15T22:18:31.506Z,99.90
2019-05-15T22:21:11.628Z,99.90
2019-05-15T22:23:51.733Z,99.90
2019-05-15T22:26:32.130Z,99.90
2019-05-15T22:29:12.402Z,99.90
2019-05-15T22:31:51.950Z,99.90
2019-05-15T22:34:32.285Z,99.90
2019-05-15T22:37:12.361Z,99.90
2019-05-15T22:39:52.779Z,99.90
2019-05-15T22:42:32.446Z,99.90
2019-05-15T22:45:12.227Z,99.90
2019-05-15T22:47:52.913Z,99.90
2019-05-15T22:50:32.693Z,99.90
2019-05-15T22:53:13.071Z,99.90
2019-05-15T22:55:52.864Z,99.90
2019-05-15T22:58:33.233Z,99.90
2019-05-15T23:01:12.838Z,99.90
2019-05-15T23:03:53.464Z,99.90
2019-05-15T23:06:33.313Z,99.90
2019-05-15T23:09:13.633Z,99.90
2019-05-15T23:11:53.341Z,99.90
2019-05-15T23:14:33.189Z,99.90
2019-05-15T23:17:13.684Z,99.90
2019-05-15T23:19:53.600Z,99.90
2019-05-15T23:22:34.076Z,99.90
2019-05-15T23:25:14.157Z,99.90
2019-05-15T23:27:54.790Z,99.90
2019-05-15T23:30:35.514Z,99.90
2019-05-15T23:33:15.830Z,99.90
2019-05-15T23:35:55.993Z,99.90
2019-05-15T23:38:38.334Z,99.90
2019-05-15T23:41:19.036Z,99.90
2019-05-15T23:43:59.461Z,99.90
2019-05-15T23:46:39.634Z,99.90
2019-05-15T23:49:20.069Z,99.90
2019-05-15T23:52:00.050Z,99.90
2019-05-15T23:54:40.529Z,99.90
2019-05-15T23:57:20.421Z,99.90
